createdAt,value
2023-01-29T00:02:10.764Z,-1.22
2023-01-29T00:04:38.666Z,-1.29
2023-01-29T00:07:06.664Z,-1.23
2023-01-29T00:09:35.934Z,-0.95
2023-01-29T00:12:03.796Z,-0.97
2023-01-29T00:14:31.741Z,-0.95
2023-01-29T00:16:59.626Z,-1.10
2023-01-29T00:19:27.506Z,-0.88
2023-01-29T00:21:55.347Z,-0.76
2023-01-29T00:24:23.389Z,-0.82
2023-01-29T00:26:52.524Z,-0.82
2023-01-29T00:29:21.985Z,-1.02
2023-01-29T00:31:50.214Z,-0.96
2023-01-29T00:34:18.199Z,-1.11
2023-01-29T00:36:46.415Z,-1.14
2023-01-29T00:39:14.333Z,-1.38
2023-01-29T00:42:05.130Z,-1.26
2023-01-29T00:44:54.209Z,-1.30
2023-01-29T00:47:37.162Z,-1.35
2023-01-29T00:50:08.119Z,-1.54
2023-01-29T00:52:36.546Z,-1.49
2023-01-29T00:55:06.129Z,-1.60
2023-01-29T00:57:36.670Z,-1.25
2023-01-29T01:00:07.355Z,-1.23
2023-01-29T01:02:53.061Z,-1.33
2023-01-29T01:05:21.294Z,-1.10
2023-01-29T01:07:50.538Z,-1.15
2023-01-29T01:10:22.681Z,-1.24
2023-01-29T01:12:53.664Z,-1.31
2023-01-29T01:15:23.926Z,-1.49
2023-01-29T01:17:55.669Z,-1.33
2023-01-29T01:20:23.686Z,-1.29
2023-01-29T01:22:51.531Z,-1.17
2023-01-29T01:25:19.738Z,-1.36
2023-01-29T01:27:47.770Z,-1.42
2023-01-29T01:30:17.805Z,-1.43
2023-01-29T01:32:47.321Z,-1.64
2023-01-29T01:35:15.509Z,-1.36
2023-01-29T01:37:43.750Z,-1.40
2023-01-29T01:40:18.224Z,-1.59
2023-01-29T01:42:49.327Z,-1.66
2023-01-29T01:45:25.639Z,-1.52
2023-01-29T01:47:59.085Z,-1.64
2023-01-29T01:50:32.500Z,-1.64
2023-01-29T01:53:06.419Z,-1.68
2023-01-29T01:55:38.553Z,-1.74
2023-01-29T01:58:12.900Z,-1.71
2023-01-29T02:00:41.843Z,-1.64
2023-01-29T02:03:30.135Z,-1.66
2023-01-29T02:06:18.740Z,-1.65
2023-01-29T02:09:10.407Z,-1.41
2023-01-29T02:11:38.898Z,-1.28
2023-01-29T02:14:07.131Z,-1.48
2023-01-29T02:16:35.811Z,-1.83
2023-01-29T02:19:10.626Z,-1.72
2023-01-29T02:22:07.193Z,-1.93
2023-01-29T02:25:09.780Z,-2.14
2023-01-29T02:28:02.863Z,-2.13
2023-01-29T02:30:37.624Z,-2.14
2023-01-29T02:33:15.251Z,-2.09
2023-01-29T02:35:47.981Z,-2.27
2023-01-29T02:38:24.608Z,-2.27
2023-01-29T02:40:57.690Z,-2.22
2023-01-29T02:43:36.390Z,-2.23
2023-01-29T02:46:12.571Z,-2.36
2023-01-29T02:48:46.001Z,-2.28
2023-01-29T02:51:21.121Z,-2.45
2023-01-29T02:53:59.170Z,-2.54
2023-01-29T02:56:31.842Z,-2.55
2023-01-29T02:59:06.061Z,-2.70
2023-01-29T03:01:40.098Z,-2.60
2023-01-29T03:04:11.626Z,-2.60
2023-01-29T03:06:44.131Z,-2.71
2023-01-29T03:09:17.668Z,-2.74
2023-01-29T03:11:51.072Z,-2.75
2023-01-29T03:14:24.834Z,-2.89
2023-01-29T03:16:54.535Z,-2.79
2023-01-29T03:19:31.883Z,-2.95
2023-01-29T03:22:04.391Z,-3.02
2023-01-29T03:24:56.082Z,-3.17
2023-01-29T03:27:48.171Z,-3.02
2023-01-29T03:30:38.070Z,-2.98
2023-01-29T03:33:09.282Z,-3.13
2023-01-29T03:35:41.773Z,-3.17
2023-01-29T03:38:12.395Z,-3.38
2023-01-29T03:40:47.139Z,-3.24
2023-01-29T03:43:27.640Z,-3.16
2023-01-29T03:46:01.396Z,-3.00
2023-01-29T03:48:36.220Z,-3.17
2023-01-29T03:51:23.427Z,-2.89
2023-01-29T03:53:54.766Z,-2.85
2023-01-29T03:56:35.354Z,-2.68
2023-01-29T03:59:05.765Z,-2.68
2023-01-29T04:01:42.254Z,-3.03
2023-01-29T04:04:16.015Z,-2.75
2023-01-29T04:06:47.666Z,-2.81
2023-01-29T04:09:22.327Z,-2.71
2023-01-29T04:11:55.522Z,-2.55
2023-01-29T04:14:23.678Z,-2.61
2023-01-29T04:16:56.939Z,-2.44
2023-01-29T04:19:25.278Z,-2.07
2023-01-29T04:22:03.124Z,-2.01
2023-01-29T04:24:31.472Z,-1.99
2023-01-29T04:27:10.829Z,-1.89
2023-01-29T04:29:52.167Z,-1.82
2023-01-29T04:32:29.927Z,-2.02
2023-01-29T04:35:02.480Z,-1.84
2023-01-29T04:37:41.330Z,-1.66
2023-01-29T04:40:21.195Z,-1.66
2023-01-29T04:42:55.433Z,-1.56
2023-01-29T04:45:30.470Z,-1.50
2023-01-29T04:48:12.217Z,-1.71
2023-01-29T04:50:43.556Z,-1.56
2023-01-29T04:53:19.647Z,-1.75
2023-01-29T04:55:52.697Z,-1.36
2023-01-29T04:58:27.852Z,-1.53
2023-01-29T05:00:56.185Z,-1.26
2023-01-29T05:03:28.387Z,-1.28
2023-01-29T05:05:58.582Z,-1.25
2023-01-29T05:08:29.322Z,-1.21
2023-01-29T05:10:59.163Z,-1.21
2023-01-29T05:13:30.615Z,-1.26
2023-01-29T05:16:03.930Z,-1.16
2023-01-29T05:18:33.438Z,-1.27
2023-01-29T05:21:06.187Z,-1.18
2023-01-29T05:23:34.352Z,-1.33
2023-01-29T05:26:02.112Z,-1.28
2023-01-29T05:28:29.096Z,-1.17
2023-01-29T05:30:58.026Z,-1.31
2023-01-29T05:33:27.562Z,-1.24
2023-01-29T05:35:57.612Z,-1.37
2023-01-29T05:38:25.857Z,-1.43
2023-01-29T05:40:54.108Z,-1.14
2023-01-29T05:43:24.031Z,-1.33
2023-01-29T05:45:55.936Z,-1.26
2023-01-29T05:48:24.198Z,-1.09
2023-01-29T05:50:52.596Z,-1.43
2023-01-29T05:53:21.860Z,-1.10
2023-01-29T05:55:50.169Z,-1.14
2023-01-29T05:58:19.857Z,-1.20
2023-01-29T06:00:47.745Z,-1.08
2023-01-29T06:03:15.539Z,-1.33
2023-01-29T06:05:43.398Z,-1.33
2023-01-29T06:08:11.414Z,-1.17
2023-01-29T06:10:40.537Z,-1.18
2023-01-29T06:13:08.520Z,-1.20
2023-01-29T06:15:36.356Z,-1.29
2023-01-29T06:18:04.142Z,-1.13
2023-01-29T06:20:32.069Z,-1.19
2023-01-29T06:23:00.035Z,-1.23
2023-01-29T06:25:27.810Z,-1.41
2023-01-29T06:27:59.442Z,-1.33
2023-01-29T06:30:28.383Z,-1.50
2023-01-29T06:32:58.830Z,-1.41
2023-01-29T06:35:26.442Z,-1.34
2023-01-29T06:37:54.250Z,-1.43
2023-01-29T06:40:22.254Z,-1.27
2023-01-29T06:42:49.985Z,-1.34
2023-01-29T06:45:19.285Z,-1.50
2023-01-29T06:47:47.256Z,-1.40
2023-01-29T06:50:15.462Z,-1.37
2023-01-29T06:52:43.439Z,-1.38
2023-01-29T06:55:11.590Z,-1.28
2023-01-29T06:57:39.504Z,-1.56
2023-01-29T07:00:09.940Z,-1.45
2023-01-29T07:02:39.261Z,-1.40
2023-01-29T07:05:07.452Z,-1.43
2023-01-29T07:07:36.851Z,-1.34
2023-01-29T07:10:05.173Z,-1.22
2023-01-29T07:12:32.836Z,-1.31
2023-01-29T07:15:00.784Z,-1.33
2023-01-29T07:17:28.623Z,-1.39
2023-01-29T07:19:57.822Z,-1.34
2023-01-29T07:22:25.745Z,-1.29
2023-01-29T07:24:53.610Z,-1.26
2023-01-29T07:27:21.375Z,-1.44
2023-01-29T07:29:49.217Z,-1.47
2023-01-29T07:32:17.102Z,-1.29
2023-01-29T07:34:44.927Z,-1.15
2023-01-29T07:37:14.721Z,-1.07
2023-01-29T07:39:42.722Z,-1.01
2023-01-29T07:42:10.504Z,-0.98
2023-01-29T07:44:38.410Z,-0.97
2023-01-29T07:47:06.395Z,-1.06
2023-01-29T07:49:34.105Z,-0.92
2023-01-29T07:52:01.954Z,-0.94
2023-01-29T07:54:32.285Z,-0.99
2023-01-29T07:57:00.106Z,-1.01
2023-01-29T07:59:27.939Z,-1.01
2023-01-29T08:01:55.828Z,-0.84
2023-01-29T08:04:23.572Z,-0.87
2023-01-29T08:06:51.417Z,-0.88
2023-01-29T08:09:19.314Z,-0.94
2023-01-29T08:11:48.460Z,-0.89
2023-01-29T08:14:16.203Z,-0.80
2023-01-29T08:16:44.362Z,-0.75
2023-01-29T08:19:12.130Z,-0.99
2023-01-29T08:21:39.850Z,-0.80
2023-01-29T08:24:08.325Z,-0.72
2023-01-29T08:26:36.317Z,-0.62
2023-01-29T08:29:05.607Z,-0.55
2023-01-29T08:31:33.679Z,-0.50
2023-01-29T08:34:01.509Z,-0.52
2023-01-29T08:36:29.288Z,-0.42
2023-01-29T08:38:57.241Z,-0.49
2023-01-29T08:41:24.985Z,-0.46
2023-01-29T08:43:52.852Z,-0.34
2023-01-29T08:46:22.241Z,-0.39
2023-01-29T08:48:50.072Z,-0.28
2023-01-29T08:51:17.830Z,-0.17
2023-01-29T08:53:46.082Z,-0.15
2023-01-29T08:56:13.872Z,0.04
2023-01-29T08:58:41.660Z,0.10
2023-01-29T09:01:10.967Z,0.02
2023-01-29T09:03:41.111Z,-0.05
2023-01-29T09:06:10.348Z,-0.16
2023-01-29T09:08:38.505Z,0.01
2023-01-29T09:11:06.642Z,0.03
2023-01-29T09:13:34.684Z,0.03
2023-01-29T09:16:03.760Z,0.06
2023-01-29T09:18:32.319Z,0.07
2023-01-29T09:21:02.704Z,0.15
2023-01-29T09:23:31.119Z,0.16
2023-01-29T09:25:59.033Z,0.07
2023-01-29T09:28:27.196Z,0.14
2023-01-29T09:30:55.141Z,0.17
2023-01-29T09:33:24.731Z,0.26
2023-01-29T09:35:52.590Z,0.24
2023-01-29T09:38:21.941Z,0.40
2023-01-29T09:40:59.633Z,0.35
2023-01-29T09:43:40.289Z,0.37
2023-01-29T09:46:16.983Z,0.56
2023-01-29T09:48:47.633Z,0.39
2023-01-29T09:51:26.136Z,0.42
2023-01-29T09:54:06.015Z,0.52
2023-01-29T09:56:33.993Z,0.39
2023-01-29T09:59:02.151Z,0.55
2023-01-29T10:01:38.127Z,0.46
2023-01-29T10:04:49.724Z,0.29
2023-01-29T10:07:33.843Z,0.45
2023-01-29T10:10:23.816Z,0.46
2023-01-29T10:13:02.711Z,0.60
2023-01-29T10:15:47.745Z,0.74
2023-01-29T10:18:41.348Z,0.70
2023-01-29T10:21:24.335Z,0.53
2023-01-29T10:23:55.403Z,0.69
2023-01-29T10:26:28.020Z,0.83
2023-01-29T10:28:58.927Z,0.76
2023-01-29T10:31:32.794Z,0.63
2023-01-29T10:34:05.649Z,0.81
2023-01-29T10:36:38.331Z,0.81
2023-01-29T10:39:06.268Z,0.94
2023-01-29T10:41:50.583Z,0.86
2023-01-29T10:44:30.130Z,0.83
2023-01-29T10:47:13.410Z,0.59
2023-01-29T10:50:13.945Z,0.72
2023-01-29T10:52:49.993Z,0.82
2023-01-29T10:55:33.238Z,0.75
2023-01-29T10:58:11.735Z,0.84
2023-01-29T11:00:42.035Z,0.82
2023-01-29T11:03:26.313Z,0.99
2023-01-29T11:06:01.590Z,0.94
2023-01-29T11:08:36.208Z,1.08
2023-01-29T11:11:09.076Z,1.10
2023-01-29T11:13:43.785Z,1.21
2023-01-29T11:16:12.407Z,1.14
2023-01-29T11:18:55.038Z,1.16
2023-01-29T11:21:24.569Z,1.14
2023-01-29T11:24:06.350Z,1.27
2023-01-29T11:26:39.601Z,1.23
2023-01-29T11:29:32.661Z,1.27
2023-01-29T11:32:01.937Z,1.38
2023-01-29T11:34:29.807Z,1.29
2023-01-29T11:36:59.128Z,1.40
2023-01-29T11:39:28.434Z,1.30
2023-01-29T11:41:58.913Z,1.38
2023-01-29T11:44:32.076Z,1.62
2023-01-29T11:47:13.542Z,1.63
2023-01-29T11:49:46.630Z,1.61
2023-01-29T11:52:16.928Z,1.55
2023-01-29T11:54:48.869Z,1.47
2023-01-29T11:57:27.647Z,1.56
2023-01-29T11:59:59.583Z,1.67
2023-01-29T12:02:33.022Z,1.57
2023-01-29T12:05:05.861Z,1.57
2023-01-29T12:07:35.052Z,1.79
2023-01-29T12:10:03.785Z,1.78
2023-01-29T12:12:42.335Z,1.87
2023-01-29T12:15:22.337Z,1.83
2023-01-29T12:17:58.973Z,2.01
2023-01-29T12:20:34.495Z,1.96
2023-01-29T12:23:17.306Z,1.99
2023-01-29T12:25:57.586Z,1.97
2023-01-29T12:28:42.246Z,1.98
2023-01-29T12:31:22.598Z,1.91
2023-01-29T12:33:55.219Z,2.01
2023-01-29T12:36:27.594Z,2.01
2023-01-29T12:38:56.417Z,2.02
2023-01-29T12:41:33.071Z,2.01
2023-01-29T12:44:06.353Z,2.15
2023-01-29T12:46:44.807Z,2.07
2023-01-29T12:49:19.531Z,2.14
2023-01-29T12:51:55.852Z,2.20
2023-01-29T12:54:32.642Z,2.23
2023-01-29T12:57:03.417Z,2.29
2023-01-29T12:59:36.579Z,2.43
2023-01-29T13:02:19.738Z,2.40
2023-01-29T13:04:51.575Z,2.44
2023-01-29T13:07:23.782Z,2.20
2023-01-29T13:09:57.058Z,2.31
2023-01-29T13:12:25.871Z,2.23
2023-01-29T13:14:58.712Z,2.47
2023-01-29T13:17:34.093Z,2.35
2023-01-29T13:20:10.259Z,2.29
2023-01-29T13:22:40.944Z,2.33
2023-01-29T13:25:16.929Z,2.33
2023-01-29T13:27:47.674Z,2.28
2023-01-29T13:30:31.437Z,2.32
2023-01-29T13:33:10.395Z,2.30
2023-01-29T13:35:41.743Z,2.31
2023-01-29T13:38:24.813Z,2.36
2023-01-29T13:40:53.958Z,2.29
2023-01-29T13:43:24.417Z,2.27
2023-01-29T13:45:53.705Z,2.32
2023-01-29T13:48:28.544Z,2.35
2023-01-29T13:51:00.966Z,2.40
2023-01-29T13:53:35.272Z,2.26
2023-01-29T13:56:31.087Z,2.48
2023-01-29T13:58:59.862Z,2.49
2023-01-29T14:02:03.995Z,2.51
2023-01-29T14:04:34.291Z,2.55
2023-01-29T14:07:04.117Z,2.49
2023-01-29T14:10:14.297Z,2.54
2023-01-29T14:12:47.487Z,2.53
2023-01-29T14:15:21.321Z,2.56
2023-01-29T14:17:59.729Z,2.53
2023-01-29T14:20:45.169Z,2.59
2023-01-29T14:23:25.302Z,2.58
2023-01-29T14:25:53.530Z,2.60
2023-01-29T14:28:24.914Z,2.55
2023-01-29T14:30:55.271Z,2.44
2023-01-29T14:33:27.832Z,2.65
2023-01-29T14:35:58.902Z,2.55
2023-01-29T14:38:29.483Z,2.66
2023-01-29T14:41:08.724Z,2.69
2023-01-29T14:43:36.641Z,2.71
2023-01-29T14:46:42.045Z,2.70
2023-01-29T14:49:10.543Z,2.63
2023-01-29T14:51:45.241Z,2.73
2023-01-29T14:54:23.902Z,2.72
2023-01-29T14:56:59.595Z,2.79
2023-01-29T14:59:34.727Z,2.77
2023-01-29T15:02:13.554Z,2.87
2023-01-29T15:04:48.750Z,2.96
2023-01-29T15:07:26.727Z,2.83
2023-01-29T15:10:13.465Z,2.73
2023-01-29T15:12:51.758Z,2.81
2023-01-29T15:15:36.155Z,2.80
2023-01-29T15:18:09.652Z,2.88
2023-01-29T15:20:39.529Z,2.77
2023-01-29T15:23:26.251Z,2.82
2023-01-29T15:25:56.324Z,2.87
2023-01-29T15:28:24.794Z,2.75
2023-01-29T15:30:57.065Z,2.82
2023-01-29T15:33:25.155Z,2.87
2023-01-29T15:36:06.901Z,2.89
2023-01-29T15:38:37.131Z,2.78
2023-01-29T15:41:18.509Z,2.89
2023-01-29T15:43:47.732Z,2.97
2023-01-29T15:46:22.469Z,2.80
2023-01-29T15:48:51.224Z,2.99
2023-01-29T15:51:21.995Z,2.96
2023-01-29T15:53:53.040Z,2.95
2023-01-29T15:56:24.803Z,3.08
2023-01-29T15:58:54.052Z,3.00
2023-01-29T16:01:22.216Z,3.13
2023-01-29T16:03:51.365Z,3.20
2023-01-29T16:06:20.248Z,3.11
2023-01-29T16:08:53.036Z,3.06
2023-01-29T16:11:21.910Z,3.12
2023-01-29T16:13:52.568Z,3.21
2023-01-29T16:16:23.097Z,3.17
2023-01-29T16:18:59.858Z,3.09
2023-01-29T16:21:33.098Z,3.27
2023-01-29T16:24:03.781Z,3.34
2023-01-29T16:26:35.163Z,3.30
2023-01-29T16:29:06.291Z,3.26
2023-01-29T16:31:34.730Z,3.25
2023-01-29T16:34:10.327Z,3.27
2023-01-29T16:36:38.339Z,3.36
2023-01-29T16:39:19.052Z,3.36
2023-01-29T16:41:46.798Z,3.34
2023-01-29T16:44:33.374Z,3.34
2023-01-29T16:47:12.847Z,3.39
2023-01-29T16:49:47.538Z,3.38
2023-01-29T16:52:23.899Z,3.37
2023-01-29T16:54:53.583Z,3.30
2023-01-29T16:57:26.125Z,3.34
2023-01-29T16:59:57.035Z,3.39
2023-01-29T17:02:28.633Z,3.38
2023-01-29T17:05:01.681Z,3.33
2023-01-29T17:07:30.635Z,3.41
2023-01-29T17:10:03.173Z,3.39
2023-01-29T17:12:33.055Z,3.42
2023-01-29T17:15:02.329Z,3.42
2023-01-29T17:17:32.154Z,3.32
2023-01-29T17:20:00.259Z,3.44
2023-01-29T17:22:28.229Z,3.26
2023-01-29T17:24:56.165Z,3.21
2023-01-29T17:27:25.270Z,3.25
2023-01-29T17:29:53.683Z,3.38
2023-01-29T17:32:22.613Z,3.35
2023-01-29T17:34:52.279Z,3.28
2023-01-29T17:37:20.213Z,3.27
2023-01-29T17:39:50.629Z,3.25
2023-01-29T17:42:18.192Z,3.40
2023-01-29T17:44:47.378Z,3.44
2023-01-29T17:47:16.181Z,3.41
2023-01-29T17:49:44.610Z,3.42
2023-01-29T17:52:12.590Z,3.42
2023-01-29T17:54:40.489Z,3.56
2023-01-29T17:57:08.221Z,3.48
2023-01-29T17:59:36.459Z,3.48
2023-01-29T18:02:05.768Z,3.36
2023-01-29T18:04:33.469Z,3.47
2023-01-29T18:07:01.393Z,3.54
2023-01-29T18:09:29.293Z,3.48
2023-01-29T18:11:57.140Z,3.39
2023-01-29T18:14:25.028Z,3.40
2023-01-29T18:16:52.852Z,3.46
2023-01-29T18:19:27.315Z,3.40
2023-01-29T18:21:55.790Z,3.45
2023-01-29T18:24:23.667Z,3.51
2023-01-29T18:26:52.229Z,3.51
2023-01-29T18:29:20.255Z,3.47
2023-01-29T18:31:49.359Z,3.46
2023-01-29T18:34:17.159Z,3.35
2023-01-29T18:36:47.916Z,3.39
2023-01-29T18:39:16.013Z,3.50
2023-01-29T18:41:43.912Z,3.53
2023-01-29T18:44:12.017Z,3.62
2023-01-29T18:46:39.920Z,3.45
2023-01-29T18:49:07.929Z,3.54
2023-01-29T18:51:36.223Z,3.41
2023-01-29T18:54:05.854Z,3.50
2023-01-29T18:56:33.626Z,3.60
2023-01-29T18:59:01.603Z,3.44
2023-01-29T19:01:29.409Z,3.65
2023-01-29T19:03:59.154Z,3.66
2023-01-29T19:06:27.058Z,3.54
2023-01-29T19:08:54.994Z,3.50
2023-01-29T19:11:24.347Z,3.58
2023-01-29T19:13:52.388Z,3.59
2023-01-29T19:16:20.150Z,3.49
2023-01-29T19:18:48.056Z,3.50
2023-01-29T19:21:17.414Z,3.60
2023-01-29T19:23:45.668Z,3.57
2023-01-29T19:26:14.158Z,3.55
2023-01-29T19:28:43.645Z,3.62
2023-01-29T19:31:11.534Z,3.71
2023-01-29T19:33:40.113Z,3.78
2023-01-29T19:36:08.966Z,3.74
2023-01-29T19:38:38.614Z,3.63
2023-01-29T19:41:06.954Z,3.69
2023-01-29T19:43:36.391Z,3.76
2023-01-29T19:46:09.205Z,3.79
2023-01-29T19:48:37.341Z,3.76
2023-01-29T19:51:08.480Z,3.80
2023-01-29T19:53:37.522Z,3.82
2023-01-29T19:56:07.352Z,3.73
2023-01-29T19:58:36.186Z,3.73
2023-01-29T20:01:08.523Z,3.82
2023-01-29T20:03:38.012Z,3.81
2023-01-29T20:06:07.650Z,3.85
2023-01-29T20:08:36.996Z,3.87
2023-01-29T20:11:05.665Z,3.81
2023-01-29T20:13:34.178Z,3.85
2023-01-29T20:16:04.075Z,3.85
2023-01-29T20:18:33.347Z,3.83
2023-01-29T20:21:08.161Z,3.89
2023-01-29T20:23:38.617Z,3.93
2023-01-29T20:26:06.930Z,3.89
2023-01-29T20:28:35.853Z,3.87
2023-01-29T20:31:03.903Z,3.94
2023-01-29T20:33:34.724Z,3.90
2023-01-29T20:36:04.659Z,3.98
2023-01-29T20:38:33.870Z,3.95
2023-01-29T20:41:06.842Z,3.97
2023-01-29T20:43:35.633Z,4.01
2023-01-29T20:46:04.563Z,4.02
2023-01-29T20:48:34.039Z,4.02
2023-01-29T20:51:07.944Z,4.08
2023-01-29T20:53:36.183Z,4.09
2023-01-29T20:56:05.260Z,4.00
2023-01-29T20:58:33.375Z,4.03
2023-01-29T21:01:01.534Z,4.05
2023-01-29T21:03:29.693Z,4.04
2023-01-29T21:06:00.132Z,4.15
2023-01-29T21:08:31.129Z,4.14
2023-01-29T21:11:55.049Z,4.19
2023-01-29T21:14:22.938Z,4.15
2023-01-29T21:16:50.907Z,4.14
2023-01-29T21:19:18.746Z,4.17
2023-01-29T21:21:48.261Z,4.20
2023-01-29T21:24:18.780Z,4.30
2023-01-29T21:26:46.621Z,4.28
2023-01-29T21:29:15.755Z,4.36
2023-01-29T21:31:44.221Z,4.30
2023-01-29T21:34:12.144Z,4.40
2023-01-29T21:36:40.481Z,4.33
2023-01-29T21:39:28.093Z,4.42
2023-01-29T21:42:13.603Z,4.26
2023-01-29T21:44:41.568Z,4.37
2023-01-29T21:47:13.280Z,4.24
2023-01-29T21:49:42.597Z,4.40
2023-01-29T21:52:12.616Z,4.36
2023-01-29T21:54:45.785Z,4.31
2023-01-29T21:57:15.934Z,4.47
2023-01-29T21:59:46.826Z,4.37
2023-01-29T22:02:20.197Z,4.33
2023-01-29T22:04:48.064Z,4.22
2023-01-29T22:07:16.058Z,4.33
2023-01-29T22:09:45.490Z,4.40
2023-01-29T22:12:13.464Z,4.36
2023-01-29T22:14:42.075Z,4.28
2023-01-29T22:17:10.902Z,4.29
2023-01-29T22:19:38.965Z,4.34
2023-01-29T22:22:07.946Z,4.23
2023-01-29T22:24:36.000Z,4.27
2023-01-29T22:27:05.292Z,4.27
2023-01-29T22:29:33.382Z,4.36
2023-01-29T22:32:01.573Z,4.26
2023-01-29T22:34:29.393Z,4.31
2023-01-29T22:36:57.418Z,4.21
2023-01-29T22:39:25.660Z,4.24
2023-01-29T22:41:53.561Z,4.30
2023-01-29T22:44:23.070Z,4.20
2023-01-29T22:46:51.236Z,4.27
2023-01-29T22:49:19.945Z,4.28
2023-01-29T22:51:48.206Z,4.35
2023-01-29T22:54:16.539Z,4.26
2023-01-29T22:56:44.347Z,4.31
2023-01-29T22:59:12.307Z,4.27
2023-01-29T23:01:41.594Z,4.22
2023-01-29T23:04:09.514Z,4.16
2023-01-29T23:06:37.441Z,4.28
2023-01-29T23:09:05.819Z,4.35
2023-01-29T23:11:35.922Z,4.40
2023-01-29T23:14:04.047Z,4.29
2023-01-29T23:16:31.944Z,4.38
2023-01-29T23:19:01.167Z,4.44
2023-01-29T23:21:29.061Z,4.45
2023-01-29T23:23:58.547Z,4.45
2023-01-29T23:26:44.453Z,4.35
2023-01-29T23:29:12.894Z,4.46
2023-01-29T23:31:40.818Z,4.44
2023-01-29T23:34:10.169Z,4.45
2023-01-29T23:36:38.552Z,4.49
2023-01-29T23:39:06.530Z,4.45
2023-01-29T23:41:34.620Z,4.55
2023-01-29T23:44:02.577Z,4.52
2023-01-29T23:46:30.522Z,4.43
2023-01-29T23:48:58.594Z,4.44
2023-01-29T23:51:28.278Z,4.55
2023-01-29T23:54:02.174Z,4.40
2023-01-29T23:56:30.129Z,4.45
2023-01-29T23:58:59.081Z,4.45
